sensor_id;sensor_type;location;lat;lon;timestamp;temperature;humidity
25214;DHT22;13160;51.834;4.706;2023-05-23T00:00:47;14.80;99.90
25214;DHT22;13160;51.834;4.706;2023-05-23T00:03:18;14.80;99.90
25214;DHT22;13160;51.834;4.706;2023-05-23T00:05:49;14.70;99.90
25214;DHT22;13160;51.834;4.706;2023-05-23T00:08:18;14.80;99.90
25214;DHT22;13160;51.834;4.706;2023-05-23T00:10:47;14.70;99.90
25214;DHT22;13160;51.834;4.706;2023-05-23T00:13:17;14.70;99.90
25214;DHT22;13160;51.834;4.706;2023-05-23T00:15:46;14.70;99.90
25214;DHT22;13160;51.834;4.706;2023-05-23T00:18:14;14.70;99.90
25214;DHT22;13160;51.834;4.706;2023-05-23T00:20:44;14.60;99.90
25214;DHT22;13160;51.834;4.706;2023-05-23T00:23:13;14.60;99.90
25214;DHT22;13160;51.834;4.706;2023-05-23T00:25:45;14.60;99.90
25214;DHT22;13160;51.834;4.706;2023-05-23T00:28:21;14.60;99.90
25214;DHT22;13160;51.834;4.706;2023-05-23T00:30:49;14.60;99.90
25214;DHT22;13160;51.834;4.706;2023-05-23T00:33:18;14.60;99.90
25214;DHT22;13160;51.834;4.706;2023-05-23T00:35:48;14.60;99.90
25214;DHT22;13160;51.834;4.706;2023-05-23T00:38:16;14.60;99.90
25214;DHT22;13160;51.834;4.706;2023-05-23T00:40:45;14.60;99.90
25214;DHT22;13160;51.834;4.706;2023-05-23T00:43:14;14.50;99.90
25214;DHT22;13160;51.834;4.706;2023-05-23T00:45:44;14.50;99.90
25214;DHT22;13160;51.834;4.706;2023-05-23T00:48:12;14.50;99.90
25214;DHT22;13160;51.834;4.706;2023-05-23T00:50:41;14.50;99.90
25214;DHT22;13160;51.834;4.706;2023-05-23T00:53:10;14.60;99.90
25214;DHT22;13160;51.834;4.706;2023-05-23T00:55:39;14.50;99.90
25214;DHT22;13160;51.834;4.706;2023-05-23T00:58:08;14.50;99.90
25214;DHT22;13160;51.834;4.706;2023-05-23T01:00:37;14.50;99.90
25214;DHT22;13160;51.834;4.706;2023-05-23T01:03:07;14.50;99.90
25214;DHT22;13160;51.834;4.706;2023-05-23T01:05:43;14.50;99.90
25214;DHT22;13160;51.834;4.706;2023-05-23T01:08:11;14.50;99.90
25214;DHT22;13160;51.834;4.706;2023-05-23T01:10:41;14.60;99.90
25214;DHT22;13160;51.834;4.706;2023-05-23T01:13:16;14.50;99.90
25214;DHT22;13160;51.834;4.706;2023-05-23T01:15:55;14.50;99.90
25214;DHT22;13160;51.834;4.706;2023-05-23T01:18:34;14.50;99.90
25214;DHT22;13160;51.834;4.706;2023-05-23T01:21:10;14.60;99.90
25214;DHT22;13160;51.834;4.706;2023-05-23T01:24:02;14.60;99.90
25214;DHT22;13160;51.834;4.706;2023-05-23T01:27:00;14.60;99.90
25214;DHT22;13160;51.834;4.706;2023-05-23T01:29:35;14.60;99.90
25214;DHT22;13160;51.834;4.706;2023-05-23T01:32:09;14.60;99.90
25214;DHT22;13160;51.834;4.706;2023-05-23T01:34:39;14.60;99.90
25214;DHT22;13160;51.834;4.706;2023-05-23T01:37:10;14.60;99.90
25214;DHT22;13160;51.834;4.706;2023-05-23T01:39:41;14.60;99.90
25214;DHT22;13160;51.834;4.706;2023-05-23T01:42:10;14.60;99.90
25214;DHT22;13160;51.834;4.706;2023-05-23T01:44:41;14.60;99.90
25214;DHT22;13160;51.834;4.706;2023-05-23T01:47:12;14.60;99.90
25214;DHT22;13160;51.834;4.706;2023-05-23T01:49:42;14.60;99.90
25214;DHT22;13160;51.834;4.706;2023-05-23T01:52:12;14.60;99.90
25214;DHT22;13160;51.834;4.706;2023-05-23T01:54:42;14.60;99.90
25214;DHT22;13160;51.834;4.706;2023-05-23T01:57:11;14.60;99.90
25214;DHT22;13160;51.834;4.706;2023-05-23T01:59:42;14.60;99.90
25214;DHT22;13160;51.834;4.706;2023-05-23T02:02:10;14.70;99.90
25214;DHT22;13160;51.834;4.706;2023-05-23T02:04:39;14.70;99.90
25214;DHT22;13160;51.834;4.706;2023-05-23T02:07:07;14.70;99.90
25214;DHT22;13160;51.834;4.706;2023-05-23T02:09:36;14.70;99.90
25214;DHT22;13160;51.834;4.706;2023-05-23T02:12:04;14.70;99.90
25214;DHT22;13160;51.834;4.706;2023-05-23T02:14:33;14.70;99.90
25214;DHT22;13160;51.834;4.706;2023-05-23T02:17:04;14.70;99.90
25214;DHT22;13160;51.834;4.706;2023-05-23T02:19:33;14.70;99.90
25214;DHT22;13160;51.834;4.706;2023-05-23T02:22:02;14.70;99.90
25214;DHT22;13160;51.834;4.706;2023-05-23T02:24:30;14.70;99.90
25214;DHT22;13160;51.834;4.706;2023-05-23T02:26:59;14.70;99.90
25214;DHT22;13160;51.834;4.706;2023-05-23T02:29:27;14.70;99.90
25214;DHT22;13160;51.834;4.706;2023-05-23T02:31:56;14.70;99.90
25214;DHT22;13160;51.834;4.706;2023-05-23T02:34:26;14.70;99.90
25214;DHT22;13160;51.834;4.706;2023-05-23T02:36:54;14.70;99.90
25214;DHT22;13160;51.834;4.706;2023-05-23T02:39:22;14.70;99.90
25214;DHT22;13160;51.834;4.706;2023-05-23T02:41:51;14.80;99.90
25214;DHT22;13160;51.834;4.706;2023-05-23T02:44:19;14.80;99.90
25214;DHT22;13160;51.834;4.706;2023-05-23T02:46:48;14.70;99.90
25214;DHT22;13160;51.834;4.706;2023-05-23T02:49:16;14.80;99.90
25214;DHT22;13160;51.834;4.706;2023-05-23T02:51:46;14.80;99.90
25214;DHT22;13160;51.834;4.706;2023-05-23T02:54:14;14.70;99.90
25214;DHT22;13160;51.834;4.706;2023-05-23T02:56:43;14.80;99.90
25214;DHT22;13160;51.834;4.706;2023-05-23T02:59:12;14.70;99.90
25214;DHT22;13160;51.834;4.706;2023-05-23T03:01:41;14.70;99.90
25214;DHT22;13160;51.834;4.706;2023-05-23T03:04:09;14.70;99.90
25214;DHT22;13160;51.834;4.706;2023-05-23T03:06:41;14.70;99.90
25214;DHT22;13160;51.834;4.706;2023-05-23T03:09:14;14.60;99.90
25214;DHT22;13160;51.834;4.706;2023-05-23T03:11:43;14.60;99.90
25214;DHT22;13160;51.834;4.706;2023-05-23T03:14:12;14.60;99.90
25214;DHT22;13160;51.834;4.706;2023-05-23T03:16:40;14.60;99.90
25214;DHT22;13160;51.834;4.706;2023-05-23T03:19:09;14.60;99.90
25214;DHT22;13160;51.834;4.706;2023-05-23T03:21:38;14.60;99.90
25214;DHT22;13160;51.834;4.706;2023-05-23T03:24:06;14.60;99.90
25214;DHT22;13160;51.834;4.706;2023-05-23T03:26:36;14.50;99.90
25214;DHT22;13160;51.834;4.706;2023-05-23T03:29:05;14.50;99.90
25214;DHT22;13160;51.834;4.706;2023-05-23T03:31:33;14.50;99.90
25214;DHT22;13160;51.834;4.706;2023-05-23T03:34:02;14.50;99.90
25214;DHT22;13160;51.834;4.706;2023-05-23T03:36:31;14.50;99.90
25214;DHT22;13160;51.834;4.706;2023-05-23T03:39:00;14.50;99.90
25214;DHT22;13160;51.834;4.706;2023-05-23T03:41:28;14.50;99.90
25214;DHT22;13160;51.834;4.706;2023-05-23T03:43:58;14.50;99.90
25214;DHT22;13160;51.834;4.706;2023-05-23T03:46:27;14.40;99.90
25214;DHT22;13160;51.834;4.706;2023-05-23T03:48:56;14.40;99.90
25214;DHT22;13160;51.834;4.706;2023-05-23T03:51:24;14.40;99.90
25214;DHT22;13160;51.834;4.706;2023-05-23T03:53:53;14.30;99.90
25214;DHT22;13160;51.834;4.706;2023-05-23T03:56:22;14.30;99.90
25214;DHT22;13160;51.834;4.706;2023-05-23T03:58:50;14.30;99.90
25214;DHT22;13160;51.834;4.706;2023-05-23T04:01:20;14.30;99.90
25214;DHT22;13160;51.834;4.706;2023-05-23T04:03:49;14.30;99.90
25214;DHT22;13160;51.834;4.706;2023-05-23T04:06:18;14.30;99.90
25214;DHT22;13160;51.834;4.706;2023-05-23T04:08:48;14.30;99.90
25214;DHT22;13160;51.834;4.706;2023-05-23T04:11:17;14.20;99.90
25214;DHT22;13160;51.834;4.706;2023-05-23T04:13:45;14.20;99.90
25214;DHT22;13160;51.834;4.706;2023-05-23T04:16:14;14.20;99.90
25214;DHT22;13160;51.834;4.706;2023-05-23T04:18:44;14.20;99.90
25214;DHT22;13160;51.834;4.706;2023-05-23T04:21:13;14.20;99.90
25214;DHT22;13160;51.834;4.706;2023-05-23T04:23:41;14.20;99.90
25214;DHT22;13160;51.834;4.706;2023-05-23T04:26:10;14.20;99.90
25214;DHT22;13160;51.834;4.706;2023-05-23T04:28:39;14.10;99.90
25214;DHT22;13160;51.834;4.706;2023-05-23T04:31:09;14.10;99.90
25214;DHT22;13160;51.834;4.706;2023-05-23T04:33:38;14.10;99.90
25214;DHT22;13160;51.834;4.706;2023-05-23T04:36:08;14.10;99.90
25214;DHT22;13160;51.834;4.706;2023-05-23T04:38:37;14.10;99.90
25214;DHT22;13160;51.834;4.706;2023-05-23T04:41:07;14.00;99.90
25214;DHT22;13160;51.834;4.706;2023-05-23T04:43:37;14.00;99.90
25214;DHT22;13160;51.834;4.706;2023-05-23T04:46:08;14.00;99.90
25214;DHT22;13160;51.834;4.706;2023-05-23T04:48:37;14.00;99.90
25214;DHT22;13160;51.834;4.706;2023-05-23T04:51:05;14.00;99.90
25214;DHT22;13160;51.834;4.706;2023-05-23T04:53:36;13.90;99.90
25214;DHT22;13160;51.834;4.706;2023-05-23T04:56:07;13.90;99.90
25214;DHT22;13160;51.834;4.706;2023-05-23T04:58:35;13.90;99.90
25214;DHT22;13160;51.834;4.706;2023-05-23T05:01:06;13.90;99.90
25214;DHT22;13160;51.834;4.706;2023-05-23T05:03:35;13.90;99.90
25214;DHT22;13160;51.834;4.706;2023-05-23T05:06:05;13.90;99.90
25214;DHT22;13160;51.834;4.706;2023-05-23T05:08:35;13.90;99.90
25214;DHT22;13160;51.834;4.706;2023-05-23T05:11:04;13.90;99.90
25214;DHT22;13160;51.834;4.706;2023-05-23T05:13:32;13.90;99.90
25214;DHT22;13160;51.834;4.706;2023-05-23T05:16:01;13.90;99.90
25214;DHT22;13160;51.834;4.706;2023-05-23T05:18:30;13.90;99.90
25214;DHT22;13160;51.834;4.706;2023-05-23T05:20:59;13.90;99.90
25214;DHT22;13160;51.834;4.706;2023-05-23T05:23:29;13.90;99.90
25214;DHT22;13160;51.834;4.706;2023-05-23T05:26:00;13.80;99.90
25214;DHT22;13160;51.834;4.706;2023-05-23T05:28:29;13.80;99.90
25214;DHT22;13160;51.834;4.706;2023-05-23T05:30:58;13.90;99.90
25214;DHT22;13160;51.834;4.706;2023-05-23T05:33:31;13.90;99.90
25214;DHT22;13160;51.834;4.706;2023-05-23T05:36:02;13.90;99.90
25214;DHT22;13160;51.834;4.706;2023-05-23T05:38:32;13.90;99.90
25214;DHT22;13160;51.834;4.706;2023-05-23T05:41:02;13.90;99.90
25214;DHT22;13160;51.834;4.706;2023-05-23T05:43:34;13.90;99.90
25214;DHT22;13160;51.834;4.706;2023-05-23T05:46:03;13.80;99.90
25214;DHT22;13160;51.834;4.706;2023-05-23T05:48:32;13.80;99.90
25214;DHT22;13160;51.834;4.706;2023-05-23T05:51:00;13.80;99.90
25214;DHT22;13160;51.834;4.706;2023-05-23T05:53:29;13.90;99.90
25214;DHT22;13160;51.834;4.706;2023-05-23T05:55:57;13.90;99.90
25214;DHT22;13160;51.834;4.706;2023-05-23T05:58:28;13.90;99.90
25214;DHT22;13160;51.834;4.706;2023-05-23T06:00:57;13.90;99.90
25214;DHT22;13160;51.834;4.706;2023-05-23T06:03:25;13.90;99.90
25214;DHT22;13160;51.834;4.706;2023-05-23T06:05:54;13.90;99.90
25214;DHT22;13160;51.834;4.706;2023-05-23T06:08:23;13.90;99.90
25214;DHT22;13160;51.834;4.706;2023-05-23T06:10:51;13.90;99.90
25214;DHT22;13160;51.834;4.706;2023-05-23T06:13:20;13.90;99.90
25214;DHT22;13160;51.834;4.706;2023-05-23T06:15:50;13.90;99.90
25214;DHT22;13160;51.834;4.706;2023-05-23T06:18:19;13.90;99.90
25214;DHT22;13160;51.834;4.706;2023-05-23T06:20:47;13.90;99.90
25214;DHT22;13160;51.834;4.706;2023-05-23T06:23:16;14.00;99.90
25214;DHT22;13160;51.834;4.706;2023-05-23T06:25:44;14.00;99.90
25214;DHT22;13160;51.834;4.706;2023-05-23T06:28:13;14.00;99.90
25214;DHT22;13160;51.834;4.706;2023-05-23T06:30:42;13.90;99.90
25214;DHT22;13160;51.834;4.706;2023-05-23T06:33:11;14.00;99.90
25214;DHT22;13160;51.834;4.706;2023-05-23T06:35:40;14.00;99.90
25214;DHT22;13160;51.834;4.706;2023-05-23T06:38:08;14.00;99.90
25214;DHT22;13160;51.834;4.706;2023-05-23T06:40:37;14.00;99.90
25214;DHT22;13160;51.834;4.706;2023-05-23T06:43:05;14.00;99.90
25214;DHT22;13160;51.834;4.706;2023-05-23T06:45:34;14.00;99.90
25214;DHT22;13160;51.834;4.706;2023-05-23T06:48:04;14.00;99.90
25214;DHT22;13160;51.834;4.706;2023-05-23T06:50:34;14.00;99.90
25214;DHT22;13160;51.834;4.706;2023-05-23T06:53:03;13.90;99.90
25214;DHT22;13160;51.834;4.706;2023-05-23T06:55:32;14.00;99.90
25214;DHT22;13160;51.834;4.706;2023-05-23T06:58:01;13.90;99.90
25214;DHT22;13160;51.834;4.706;2023-05-23T07:00:30;13.90;99.90
25214;DHT22;13160;51.834;4.706;2023-05-23T07:02:58;13.90;99.90
25214;DHT22;13160;51.834;4.706;2023-05-23T07:05:29;13.90;99.90
25214;DHT22;13160;51.834;4.706;2023-05-23T07:08:01;13.90;99.90
25214;DHT22;13160;51.834;4.706;2023-05-23T07:10:29;13.90;99.90
25214;DHT22;13160;51.834;4.706;2023-05-23T07:13:00;13.80;99.90
25214;DHT22;13160;51.834;4.706;2023-05-23T07:15:28;13.90;99.90
25214;DHT22;13160;51.834;4.706;2023-05-23T07:17:57;13.80;99.90
25214;DHT22;13160;51.834;4.706;2023-05-23T07:20:25;13.90;99.90
25214;DHT22;13160;51.834;4.706;2023-05-23T07:22:54;13.90;99.90
25214;DHT22;13160;51.834;4.706;2023-05-23T07:25:24;13.90;99.90
25214;DHT22;13160;51.834;4.706;2023-05-23T07:27:55;13.90;99.90
25214;DHT22;13160;51.834;4.706;2023-05-23T07:30:23;13.90;99.90
25214;DHT22;13160;51.834;4.706;2023-05-23T07:32:52;13.90;99.90
25214;DHT22;13160;51.834;4.706;2023-05-23T07:35:21;13.90;99.90
25214;DHT22;13160;51.834;4.706;2023-05-23T07:37:52;14.00;99.90
25214;DHT22;13160;51.834;4.706;2023-05-23T07:40:21;13.90;99.90
25214;DHT22;13160;51.834;4.706;2023-05-23T07:42:51;14.00;99.90
25214;DHT22;13160;51.834;4.706;2023-05-23T07:45:21;14.20;99.90
25214;DHT22;13160;51.834;4.706;2023-05-23T07:47:49;14.40;99.90
25214;DHT22;13160;51.834;4.706;2023-05-23T07:50:18;14.50;99.90
25214;DHT22;13160;51.834;4.706;2023-05-23T07:52:47;14.60;99.90
25214;DHT22;13160;51.834;4.706;2023-05-23T07:55:17;14.80;99.90
25214;DHT22;13160;51.834;4.706;2023-05-23T07:57:46;14.80;99.90
25214;DHT22;13160;51.834;4.706;2023-05-23T08:00:17;15.00;99.90
25214;DHT22;13160;51.834;4.706;2023-05-23T08:02:46;15.20;99.90
25214;DHT22;13160;51.834;4.706;2023-05-23T08:05:16;15.30;99.90
25214;DHT22;13160;51.834;4.706;2023-05-23T08:07:45;15.50;99.90
25214;DHT22;13160;51.834;4.706;2023-05-23T08:10:13;15.50;99.90
25214;DHT22;13160;51.834;4.706;2023-05-23T08:12:42;15.70;99.90
25214;DHT22;13160;51.834;4.706;2023-05-23T08:15:10;15.70;99.90
25214;DHT22;13160;51.834;4.706;2023-05-23T08:17:40;15.90;99.90
25214;DHT22;13160;51.834;4.706;2023-05-23T08:20:10;16.00;99.90
25214;DHT22;13160;51.834;4.706;2023-05-23T08:22:39;15.90;99.90
25214;DHT22;13160;51.834;4.706;2023-05-23T08:25:08;15.90;99.90
25214;DHT22;13160;51.834;4.706;2023-05-23T08:27:37;15.90;99.90
25214;DHT22;13160;51.834;4.706;2023-05-23T08:30:06;16.00;99.90
25214;DHT22;13160;51.834;4.706;2023-05-23T08:32:36;16.20;99.90
25214;DHT22;13160;51.834;4.706;2023-05-23T08:35:07;16.40;99.90
25214;DHT22;13160;51.834;4.706;2023-05-23T08:37:36;16.70;99.90
25214;DHT22;13160;51.834;4.706;2023-05-23T08:40:07;16.90;99.90
25214;DHT22;13160;51.834;4.706;2023-05-23T08:42:41;17.10;99.90
25214;DHT22;13160;51.834;4.706;2023-05-23T08:45:10;17.20;99.90
25214;DHT22;13160;51.834;4.706;2023-05-23T08:47:41;17.30;99.90
25214;DHT22;13160;51.834;4.706;2023-05-23T08:50:15;17.50;99.90
25214;DHT22;13160;51.834;4.706;2023-05-23T08:52:53;17.60;99.90
25214;DHT22;13160;51.834;4.706;2023-05-23T08:55:23;17.60;99.90
25214;DHT22;13160;51.834;4.706;2023-05-23T08:57:53;17.50;99.90
25214;DHT22;13160;51.834;4.706;2023-05-23T09:00:23;17.40;99.90
25214;DHT22;13160;51.834;4.706;2023-05-23T09:02:53;17.40;99.90
25214;DHT22;13160;51.834;4.706;2023-05-23T09:05:22;17.50;99.90
25214;DHT22;13160;51.834;4.706;2023-05-23T09:07:52;17.60;99.90
25214;DHT22;13160;51.834;4.706;2023-05-23T09:10:21;17.70;99.90
25214;DHT22;13160;51.834;4.706;2023-05-23T09:12:49;17.80;99.90
25214;DHT22;13160;51.834;4.706;2023-05-23T09:15:18;18.00;99.90
25214;DHT22;13160;51.834;4.706;2023-05-23T09:17:48;18.10;99.90
25214;DHT22;13160;51.834;4.706;2023-05-23T09:20:17;18.00;99.90
25214;DHT22;13160;51.834;4.706;2023-05-23T09:22:48;18.00;99.90
25214;DHT22;13160;51.834;4.706;2023-05-23T09:25:16;18.10;99.90
25214;DHT22;13160;51.834;4.706;2023-05-23T09:27:45;18.20;99.90
25214;DHT22;13160;51.834;4.706;2023-05-23T09:30:14;18.20;99.90
25214;DHT22;13160;51.834;4.706;2023-05-23T09:32:58;18.20;99.90
25214;DHT22;13160;51.834;4.706;2023-05-23T09:35:31;18.30;99.90
25214;DHT22;13160;51.834;4.706;2023-05-23T09:38:01;18.30;99.90
25214;DHT22;13160;51.834;4.706;2023-05-23T09:40:30;18.30;99.90
25214;DHT22;13160;51.834;4.706;2023-05-23T09:43:02;18.30;99.90
25214;DHT22;13160;51.834;4.706;2023-05-23T09:45:31;18.40;99.90
25214;DHT22;13160;51.834;4.706;2023-05-23T09:48:00;18.50;99.90
25214;DHT22;13160;51.834;4.706;2023-05-23T09:50:31;18.60;99.30
25214;DHT22;13160;51.834;4.706;2023-05-23T09:53:02;18.60;99.20
25214;DHT22;13160;51.834;4.706;2023-05-23T09:55:30;18.60;98.40
25214;DHT22;13160;51.834;4.706;2023-05-23T09:57:59;18.70;98.00
25214;DHT22;13160;51.834;4.706;2023-05-23T10:00:27;18.70;97.80
25214;DHT22;13160;51.834;4.706;2023-05-23T10:03:06;18.80;97.60
25214;DHT22;13160;51.834;4.706;2023-05-23T10:05:43;18.70;97.30
25214;DHT22;13160;51.834;4.706;2023-05-23T10:08:18;18.60;97.00
25214;DHT22;13160;51.834;4.706;2023-05-23T10:14:17;18.50;96.30
25214;DHT22;13160;51.834;4.706;2023-05-23T10:16:58;18.40;96.60
25214;DHT22;13160;51.834;4.706;2023-05-23T10:19:33;18.50;96.50
25214;DHT22;13160;51.834;4.706;2023-05-23T10:22:07;18.50;96.30
25214;DHT22;13160;51.834;4.706;2023-05-23T10:24:39;18.60;96.50
25214;DHT22;13160;51.834;4.706;2023-05-23T10:27:08;18.60;95.80
25214;DHT22;13160;51.834;4.706;2023-05-23T10:29:37;18.70;95.50
25214;DHT22;13160;51.834;4.706;2023-05-23T10:32:06;18.80;95.00
25214;DHT22;13160;51.834;4.706;2023-05-23T10:34:41;18.90;95.30
25214;DHT22;13160;51.834;4.706;2023-05-23T10:37:20;18.80;95.70
25214;DHT22;13160;51.834;4.706;2023-05-23T10:40:00;18.80;96.00
25214;DHT22;13160;51.834;4.706;2023-05-23T10:42:40;18.70;96.30
25214;DHT22;13160;51.834;4.706;2023-05-23T10:45:14;18.60;96.40
25214;DHT22;13160;51.834;4.706;2023-05-23T10:47:45;18.50;96.10
25214;DHT22;13160;51.834;4.706;2023-05-23T10:50:16;18.50;96.00
25214;DHT22;13160;51.834;4.706;2023-05-23T10:52:59;18.60;96.50
25214;DHT22;13160;51.834;4.706;2023-05-23T10:55:32;18.70;95.90
25214;DHT22;13160;51.834;4.706;2023-05-23T10:58:09;18.70;95.50
25214;DHT22;13160;51.834;4.706;2023-05-23T11:00:38;18.80;95.40
25214;DHT22;13160;51.834;4.706;2023-05-23T11:03:08;18.70;95.70
25214;DHT22;13160;51.834;4.706;2023-05-23T11:05:46;18.70;95.90
25214;DHT22;13160;51.834;4.706;2023-05-23T11:08:20;18.60;96.00
25214;DHT22;13160;51.834;4.706;2023-05-23T11:11:11;18.50;96.30
25214;DHT22;13160;51.834;4.706;2023-05-23T11:13:57;18.40;96.10
25214;DHT22;13160;51.834;4.706;2023-05-23T11:16:30;18.40;96.50
25214;DHT22;13160;51.834;4.706;2023-05-23T11:19:25;18.30;96.60
25214;DHT22;13160;51.834;4.706;2023-05-23T11:21:59;18.30;96.20
25214;DHT22;13160;51.834;4.706;2023-05-23T11:24:47;18.30;96.40
25214;DHT22;13160;51.834;4.706;2023-05-23T11:27:25;18.20;96.40
25214;DHT22;13160;51.834;4.706;2023-05-23T11:29:59;18.20;96.40
25214;DHT22;13160;51.834;4.706;2023-05-23T11:32:31;18.30;96.30
25214;DHT22;13160;51.834;4.706;2023-05-23T11:35:01;18.40;96.20
25214;DHT22;13160;51.834;4.706;2023-05-23T11:37:30;18.50;95.90
25214;DHT22;13160;51.834;4.706;2023-05-23T11:40:00;18.60;95.80
25214;DHT22;13160;51.834;4.706;2023-05-23T11:42:56;18.60;95.50
25214;DHT22;13160;51.834;4.706;2023-05-23T11:45:26;18.60;95.30
25214;DHT22;13160;51.834;4.706;2023-05-23T11:47:55;18.60;95.00
25214;DHT22;13160;51.834;4.706;2023-05-23T11:50:23;18.60;94.80
25214;DHT22;13160;51.834;4.706;2023-05-23T11:52:54;18.70;95.00
25214;DHT22;13160;51.834;4.706;2023-05-23T11:55:22;18.70;94.50
25214;DHT22;13160;51.834;4.706;2023-05-23T11:57:54;18.70;94.40
25214;DHT22;13160;51.834;4.706;2023-05-23T12:00:25;18.70;94.30
25214;DHT22;13160;51.834;4.706;2023-05-23T12:02:53;18.70;93.80
25214;DHT22;13160;51.834;4.706;2023-05-23T12:05:21;18.90;93.90
25214;DHT22;13160;51.834;4.706;2023-05-23T12:07:50;19.00;93.50
25214;DHT22;13160;51.834;4.706;2023-05-23T12:10:18;19.10;93.10
25214;DHT22;13160;51.834;4.706;2023-05-23T12:12:50;19.10;92.80
25214;DHT22;13160;51.834;4.706;2023-05-23T12:15:24;19.00;92.70
25214;DHT22;13160;51.834;4.706;2023-05-23T12:17:54;18.90;93.00
25214;DHT22;13160;51.834;4.706;2023-05-23T12:20:25;18.90;93.30
25214;DHT22;13160;51.834;4.706;2023-05-23T12:22:56;18.90;93.20
25214;DHT22;13160;51.834;4.706;2023-05-23T12:25:24;19.10;93.30
25214;DHT22;13160;51.834;4.706;2023-05-23T12:27:53;19.10;92.80
25214;DHT22;13160;51.834;4.706;2023-05-23T12:30:23;19.10;92.70
25214;DHT22;13160;51.834;4.706;2023-05-23T12:32:52;19.00;92.90
25214;DHT22;13160;51.834;4.706;2023-05-23T12:35:24;19.00;92.80
25214;DHT22;13160;51.834;4.706;2023-05-23T12:37:55;19.00;92.40
25214;DHT22;13160;51.834;4.706;2023-05-23T12:40:24;19.10;92.50
25214;DHT22;13160;51.834;4.706;2023-05-23T12:42:54;19.10;92.10
25214;DHT22;13160;51.834;4.706;2023-05-23T12:45:34;19.10;92.00
25214;DHT22;13160;51.834;4.706;2023-05-23T12:48:04;19.00;91.80
25214;DHT22;13160;51.834;4.706;2023-05-23T12:50:33;19.00;92.10
25214;DHT22;13160;51.834;4.706;2023-05-23T12:53:02;18.90;92.40
25214;DHT22;13160;51.834;4.706;2023-05-23T12:55:31;18.90;92.30
25214;DHT22;13160;51.834;4.706;2023-05-23T12:58:00;19.00;92.20
25214;DHT22;13160;51.834;4.706;2023-05-23T13:00:30;19.10;91.70
25214;DHT22;13160;51.834;4.706;2023-05-23T13:02:59;19.10;91.60
25214;DHT22;13160;51.834;4.706;2023-05-23T13:05:28;19.00;91.30
25214;DHT22;13160;51.834;4.706;2023-05-23T13:07:57;19.00;91.30
25214;DHT22;13160;51.834;4.706;2023-05-23T13:10:26;19.00;91.20
25214;DHT22;13160;51.834;4.706;2023-05-23T13:12:58;19.10;91.20
25214;DHT22;13160;51.834;4.706;2023-05-23T13:15:27;19.20;90.90
25214;DHT22;13160;51.834;4.706;2023-05-23T13:17:57;19.20;91.20
25214;DHT22;13160;51.834;4.706;2023-05-23T13:20:25;19.20;91.30
25214;DHT22;13160;51.834;4.706;2023-05-23T13:22:56;19.10;91.40
25214;DHT22;13160;51.834;4.706;2023-05-23T13:25:26;19.10;91.60
25214;DHT22;13160;51.834;4.706;2023-05-23T13:27:55;19.20;91.50
25214;DHT22;13160;51.834;4.706;2023-05-23T13:30:23;19.20;91.40
25214;DHT22;13160;51.834;4.706;2023-05-23T13:32:52;19.20;91.60
25214;DHT22;13160;51.834;4.706;2023-05-23T13:35:23;19.30;91.50
25214;DHT22;13160;51.834;4.706;2023-05-23T13:37:52;19.30;91.30
25214;DHT22;13160;51.834;4.706;2023-05-23T13:40:22;19.40;91.00
25214;DHT22;13160;51.834;4.706;2023-05-23T13:42:51;19.40;91.10
25214;DHT22;13160;51.834;4.706;2023-05-23T13:45:20;19.50;90.90
25214;DHT22;13160;51.834;4.706;2023-05-23T13:47:49;19.50;90.60
25214;DHT22;13160;51.834;4.706;2023-05-23T13:50:18;19.50;90.50
25214;DHT22;13160;51.834;4.706;2023-05-23T13:52:49;19.40;90.50
25214;DHT22;13160;51.834;4.706;2023-05-23T13:55:18;19.30;90.60
25214;DHT22;13160;51.834;4.706;2023-05-23T13:57:48;19.20;90.40
25214;DHT22;13160;51.834;4.706;2023-05-23T14:00:17;19.00;90.70
25214;DHT22;13160;51.834;4.706;2023-05-23T14:02:46;19.00;90.70
25214;DHT22;13160;51.834;4.706;2023-05-23T14:05:15;19.00;90.50
25214;DHT22;13160;51.834;4.706;2023-05-23T14:07:45;19.00;90.60
25214;DHT22;13160;51.834;4.706;2023-05-23T14:10:16;19.00;90.70
25214;DHT22;13160;51.834;4.706;2023-05-23T14:12:45;19.00;90.80
25214;DHT22;13160;51.834;4.706;2023-05-23T14:15:15;19.00;90.90
25214;DHT22;13160;51.834;4.706;2023-05-23T14:17:44;19.00;90.70
25214;DHT22;13160;51.834;4.706;2023-05-23T14:20:14;19.00;90.50
25214;DHT22;13160;51.834;4.706;2023-05-23T14:22:43;19.00;90.60
25214;DHT22;13160;51.834;4.706;2023-05-23T14:25:18;19.00;90.70
25214;DHT22;13160;51.834;4.706;2023-05-23T14:27:47;19.10;90.80
25214;DHT22;13160;51.834;4.706;2023-05-23T14:30:19;19.00;90.50
25214;DHT22;13160;51.834;4.706;2023-05-23T14:32:49;19.00;90.20
25214;DHT22;13160;51.834;4.706;2023-05-23T14:35:18;18.90;90.10
25214;DHT22;13160;51.834;4.706;2023-05-23T14:37:48;18.90;90.20
25214;DHT22;13160;51.834;4.706;2023-05-23T14:40:20;18.80;90.10
25214;DHT22;13160;51.834;4.706;2023-05-23T14:42:48;18.80;90.50
25214;DHT22;13160;51.834;4.706;2023-05-23T14:45:17;18.70;90.40
25214;DHT22;13160;51.834;4.706;2023-05-23T14:47:47;18.70;90.30
25214;DHT22;13160;51.834;4.706;2023-05-23T14:50:15;18.60;90.50
25214;DHT22;13160;51.834;4.706;2023-05-23T14:52:45;18.60;90.30
25214;DHT22;13160;51.834;4.706;2023-05-23T14:55:14;18.60;89.90
25214;DHT22;13160;51.834;4.706;2023-05-23T14:57:44;18.60;89.50
25214;DHT22;13160;51.834;4.706;2023-05-23T15:00:14;18.50;89.80
25214;DHT22;13160;51.834;4.706;2023-05-23T15:02:43;18.50;90.40
25214;DHT22;13160;51.834;4.706;2023-05-23T15:05:12;18.60;90.30
25214;DHT22;13160;51.834;4.706;2023-05-23T15:07:43;18.60;90.90
25214;DHT22;13160;51.834;4.706;2023-05-23T15:10:13;18.60;90.20
25214;DHT22;13160;51.834;4.706;2023-05-23T15:12:43;18.60;90.00
25214;DHT22;13160;51.834;4.706;2023-05-23T15:15:12;18.50;90.00
25214;DHT22;13160;51.834;4.706;2023-05-23T15:17:50;18.50;90.00
25214;DHT22;13160;51.834;4.706;2023-05-23T15:20:19;18.50;90.30
25214;DHT22;13160;51.834;4.706;2023-05-23T15:22:51;18.50;90.00
25214;DHT22;13160;51.834;4.706;2023-05-23T15:25:23;18.50;89.90
25214;DHT22;13160;51.834;4.706;2023-05-23T15:28:14;18.50;90.30
25214;DHT22;13160;51.834;4.706;2023-05-23T15:30:43;18.40;90.40
25214;DHT22;13160;51.834;4.706;2023-05-23T15:33:12;18.40;90.50
25214;DHT22;13160;51.834;4.706;2023-05-23T15:35:42;18.40;90.30
25214;DHT22;13160;51.834;4.706;2023-05-23T15:38:12;18.30;90.40
25214;DHT22;13160;51.834;4.706;2023-05-23T15:40:46;18.20;90.30
25214;DHT22;13160;51.834;4.706;2023-05-23T15:43:17;18.20;90.20
25214;DHT22;13160;51.834;4.706;2023-05-23T15:45:49;18.20;90.30
25214;DHT22;13160;51.834;4.706;2023-05-23T15:48:18;18.20;90.30
25214;DHT22;13160;51.834;4.706;2023-05-23T15:50:48;18.10;90.40
25214;DHT22;13160;51.834;4.706;2023-05-23T15:53:17;18.20;90.80